Fleetwood, New York
Current Conditions -  °F | °C
As of 5:47 AM on Wednesday 22 Oct 2014 (Local Time) from KLGA Reporting Station
Light Rain Light Rain  
Wind Chill: 55°   Ceiling: 2800
Heat Index: 55°   Visibility: 10mi
Dew Point: 52°   Wind: 10mph
Humidity: 88%   Direction: 10°N
Pressure: 29.89"   Gusts: NA
Location:  40.9243°N, 73.8256°W
Report Text: KLGA 220947Z 01009KT 10SM -RA SCT020 BKN028 OVC060 13/11 A2989 RMK AO2 CIG 020 R22 SW P0013
Loading
Personal Weather Stations






























Interactive Weather Map
Tropical Storm Tracking
New forecast layout! Learn more

10-Day Weather Forecast

Advertisements
Track Severe Weather on mobile